sensor_id;sensor_type;location;lat;lon;timestamp;P1;durP1;ratioP1;P2;durP2;ratioP2
20832;SDS011;56075;51.264;7.150;2024-03-22T00:00:07;44.65;;;15.70;;
20832;SDS011;56075;51.264;7.150;2024-03-22T00:02:45;47.72;;;16.40;;
20832;SDS011;56075;51.264;7.150;2024-03-22T00:05:16;44.65;;;15.02;;
20832;SDS011;56075;51.264;7.150;2024-03-22T00:07:48;45.33;;;15.73;;
20832;SDS011;56075;51.264;7.150;2024-03-22T00:10:19;44.22;;;16.02;;
20832;SDS011;56075;51.264;7.150;2024-03-22T00:12:50;49.97;;;16.33;;
20832;SDS011;56075;51.264;7.150;2024-03-22T00:15:22;46.10;;;16.10;;
20832;SDS011;56075;51.264;7.150;2024-03-22T00:17:53;44.20;;;15.82;;
20832;SDS011;56075;51.264;7.150;2024-03-22T00:20:24;46.08;;;16.40;;
20832;SDS011;56075;51.264;7.150;2024-03-22T00:22:56;46.70;;;16.45;;
20832;SDS011;56075;51.264;7.150;2024-03-22T00:25:27;38.67;;;14.68;;
20832;SDS011;56075;51.264;7.150;2024-03-22T00:27:58;46.20;;;15.90;;
20832;SDS011;56075;51.264;7.150;2024-03-22T00:30:30;41.33;;;15.13;;
20832;SDS011;56075;51.264;7.150;2024-03-22T00:33:01;45.88;;;16.23;;
20832;SDS011;56075;51.264;7.150;2024-03-22T00:35:32;46.88;;;15.90;;
20832;SDS011;56075;51.264;7.150;2024-03-22T00:38:04;45.83;;;15.98;;
20832;SDS011;56075;51.264;7.150;2024-03-22T00:40:35;45.75;;;15.63;;
20832;SDS011;56075;51.264;7.150;2024-03-22T00:43:06;49.22;;;16.25;;
20832;SDS011;56075;51.264;7.150;2024-03-22T00:45:37;46.80;;;15.45;;
20832;SDS011;56075;51.264;7.150;2024-03-22T00:48:08;41.45;;;15.10;;
20832;SDS011;56075;51.264;7.150;2024-03-22T00:50:39;49.45;;;15.88;;
20832;SDS011;56075;51.264;7.150;2024-03-22T00:53:11;44.80;;;14.38;;
20832;SDS011;56075;51.264;7.150;2024-03-22T00:55:43;44.67;;;15.20;;
20832;SDS011;56075;51.264;7.150;2024-03-22T00:58:14;43.20;;;14.07;;
20832;SDS011;56075;51.264;7.150;2024-03-22T01:00:46;46.58;;;14.55;;
20832;SDS011;56075;51.264;7.150;2024-03-22T01:03:17;39.72;;;13.88;;
20832;SDS011;56075;51.264;7.150;2024-03-22T01:05:49;46.10;;;14.50;;
20832;SDS011;56075;51.264;7.150;2024-03-22T01:08:20;39.70;;;14.50;;
20832;SDS011;56075;51.264;7.150;2024-03-22T01:10:51;41.60;;;14.55;;
20832;SDS011;56075;51.264;7.150;2024-03-22T01:13:22;43.13;;;15.85;;
20832;SDS011;56075;51.264;7.150;2024-03-22T01:15:54;40.55;;;14.27;;
20832;SDS011;56075;51.264;7.150;2024-03-22T01:18:25;42.58;;;14.18;;
20832;SDS011;56075;51.264;7.150;2024-03-22T01:20:56;40.47;;;13.57;;
20832;SDS011;56075;51.264;7.150;2024-03-22T01:23:27;43.42;;;13.85;;
20832;SDS011;56075;51.264;7.150;2024-03-22T01:25:58;42.92;;;15.27;;
20832;SDS011;56075;51.264;7.150;2024-03-22T01:28:30;41.00;;;14.20;;
20832;SDS011;56075;51.264;7.150;2024-03-22T01:31:01;42.80;;;13.43;;
20832;SDS011;56075;51.264;7.150;2024-03-22T01:33:32;36.90;;;13.73;;
20832;SDS011;56075;51.264;7.150;2024-03-22T01:36:04;36.22;;;12.85;;
20832;SDS011;56075;51.264;7.150;2024-03-22T01:38:35;36.05;;;13.07;;
20832;SDS011;56075;51.264;7.150;2024-03-22T01:41:07;41.63;;;13.85;;
20832;SDS011;56075;51.264;7.150;2024-03-22T01:43:38;40.80;;;13.23;;
20832;SDS011;56075;51.264;7.150;2024-03-22T01:46:09;40.38;;;13.65;;
20832;SDS011;56075;51.264;7.150;2024-03-22T01:48:41;37.90;;;13.23;;
20832;SDS011;56075;51.264;7.150;2024-03-22T01:51:12;35.30;;;13.23;;
20832;SDS011;56075;51.264;7.150;2024-03-22T01:53:43;41.13;;;13.43;;
20832;SDS011;56075;51.264;7.150;2024-03-22T01:56:15;34.33;;;12.50;;
20832;SDS011;56075;51.264;7.150;2024-03-22T01:58:46;37.40;;;12.60;;
20832;SDS011;56075;51.264;7.150;2024-03-22T02:01:19;34.80;;;13.05;;
20832;SDS011;56075;51.264;7.150;2024-03-22T02:03:50;35.05;;;11.90;;
20832;SDS011;56075;51.264;7.150;2024-03-22T02:06:22;32.85;;;12.60;;
20832;SDS011;56075;51.264;7.150;2024-03-22T02:08:53;34.25;;;12.85;;
20832;SDS011;56075;51.264;7.150;2024-03-22T02:11:25;35.53;;;12.65;;
20832;SDS011;56075;51.264;7.150;2024-03-22T02:13:57;31.00;;;12.70;;
20832;SDS011;56075;51.264;7.150;2024-03-22T02:16:29;29.73;;;11.48;;
20832;SDS011;56075;51.264;7.150;2024-03-22T02:19:00;35.25;;;11.82;;
20832;SDS011;56075;51.264;7.150;2024-03-22T02:21:32;36.20;;;12.15;;
20832;SDS011;56075;51.264;7.150;2024-03-22T02:24:04;33.35;;;12.88;;
20832;SDS011;56075;51.264;7.150;2024-03-22T02:26:35;32.90;;;11.82;;
20832;SDS011;56075;51.264;7.150;2024-03-22T02:29:06;30.98;;;11.23;;
20832;SDS011;56075;51.264;7.150;2024-03-22T02:31:38;36.92;;;12.25;;
20832;SDS011;56075;51.264;7.150;2024-03-22T02:34:09;31.13;;;11.68;;
20832;SDS011;56075;51.264;7.150;2024-03-22T02:36:40;29.48;;;11.75;;
20832;SDS011;56075;51.264;7.150;2024-03-22T02:39:11;29.17;;;11.13;;
20832;SDS011;56075;51.264;7.150;2024-03-22T02:41:42;26.77;;;11.07;;
20832;SDS011;56075;51.264;7.150;2024-03-22T02:44:13;31.33;;;11.82;;
20832;SDS011;56075;51.264;7.150;2024-03-22T02:46:45;30.42;;;11.73;;
20832;SDS011;56075;51.264;7.150;2024-03-22T02:49:16;31.48;;;11.30;;
20832;SDS011;56075;51.264;7.150;2024-03-22T02:51:49;30.25;;;10.95;;
20832;SDS011;56075;51.264;7.150;2024-03-22T02:54:21;29.85;;;11.15;;
20832;SDS011;56075;51.264;7.150;2024-03-22T02:56:52;28.10;;;10.63;;
20832;SDS011;56075;51.264;7.150;2024-03-22T02:59:26;29.70;;;11.13;;
20832;SDS011;56075;51.264;7.150;2024-03-22T03:01:57;31.52;;;10.95;;
20832;SDS011;56075;51.264;7.150;2024-03-22T03:04:29;30.35;;;11.48;;
20832;SDS011;56075;51.264;7.150;2024-03-22T03:07:00;26.00;;;11.43;;
20832;SDS011;56075;51.264;7.150;2024-03-22T03:09:31;29.77;;;11.00;;
20832;SDS011;56075;51.264;7.150;2024-03-22T03:12:02;37.30;;;12.05;;
20832;SDS011;56075;51.264;7.150;2024-03-22T03:14:34;28.23;;;11.52;;
20832;SDS011;56075;51.264;7.150;2024-03-22T03:17:05;30.90;;;11.25;;
20832;SDS011;56075;51.264;7.150;2024-03-22T03:19:36;34.55;;;11.48;;
20832;SDS011;56075;51.264;7.150;2024-03-22T03:22:08;34.42;;;12.20;;
20832;SDS011;56075;51.264;7.150;2024-03-22T03:24:39;35.25;;;11.68;;
20832;SDS011;56075;51.264;7.150;2024-03-22T03:27:11;31.67;;;12.13;;
20832;SDS011;56075;51.264;7.150;2024-03-22T03:29:42;32.33;;;11.57;;
20832;SDS011;56075;51.264;7.150;2024-03-22T03:32:14;32.97;;;11.38;;
20832;SDS011;56075;51.264;7.150;2024-03-22T03:34:45;35.10;;;11.90;;
20832;SDS011;56075;51.264;7.150;2024-03-22T03:37:16;30.20;;;10.98;;
20832;SDS011;56075;51.264;7.150;2024-03-22T03:39:47;34.00;;;11.88;;
20832;SDS011;56075;51.264;7.150;2024-03-22T03:42:18;31.73;;;11.27;;
20832;SDS011;56075;51.264;7.150;2024-03-22T03:44:49;29.55;;;10.90;;
20832;SDS011;56075;51.264;7.150;2024-03-22T03:47:20;29.98;;;11.20;;
20832;SDS011;56075;51.264;7.150;2024-03-22T03:49:52;26.92;;;10.02;;
20832;SDS011;56075;51.264;7.150;2024-03-22T03:52:23;25.42;;;10.43;;
20832;SDS011;56075;51.264;7.150;2024-03-22T03:54:54;32.85;;;11.30;;
20832;SDS011;56075;51.264;7.150;2024-03-22T03:57:25;24.65;;;10.15;;
20832;SDS011;56075;51.264;7.150;2024-03-22T03:59:56;29.85;;;11.38;;
20832;SDS011;56075;51.264;7.150;2024-03-22T04:02:27;28.25;;;10.98;;
20832;SDS011;56075;51.264;7.150;2024-03-22T04:04:59;28.35;;;10.75;;
20832;SDS011;56075;51.264;7.150;2024-03-22T04:07:31;28.05;;;11.02;;
20832;SDS011;56075;51.264;7.150;2024-03-22T04:10:02;28.27;;;10.55;;
20832;SDS011;56075;51.264;7.150;2024-03-22T04:12:33;26.15;;;10.90;;
20832;SDS011;56075;51.264;7.150;2024-03-22T04:15:05;27.83;;;10.70;;
20832;SDS011;56075;51.264;7.150;2024-03-22T04:17:36;29.15;;;11.55;;
20832;SDS011;56075;51.264;7.150;2024-03-22T04:20:08;27.02;;;10.10;;
20832;SDS011;56075;51.264;7.150;2024-03-22T04:22:39;29.40;;;10.93;;
20832;SDS011;56075;51.264;7.150;2024-03-22T04:25:11;29.33;;;11.05;;
20832;SDS011;56075;51.264;7.150;2024-03-22T04:27:42;25.45;;;11.00;;
20832;SDS011;56075;51.264;7.150;2024-03-22T04:30:13;27.33;;;10.63;;
20832;SDS011;56075;51.264;7.150;2024-03-22T04:32:48;24.95;;;10.70;;
20832;SDS011;56075;51.264;7.150;2024-03-22T04:35:19;32.75;;;10.50;;
20832;SDS011;56075;51.264;7.150;2024-03-22T04:37:50;24.80;;;10.07;;
20832;SDS011;56075;51.264;7.150;2024-03-22T04:40:21;25.70;;;9.85;;
20832;SDS011;56075;51.264;7.150;2024-03-22T04:42:53;25.25;;;10.90;;
20832;SDS011;56075;51.264;7.150;2024-03-22T04:45:24;26.05;;;10.75;;
20832;SDS011;56075;51.264;7.150;2024-03-22T04:47:55;28.45;;;10.98;;
20832;SDS011;56075;51.264;7.150;2024-03-22T04:50:26;25.58;;;10.25;;
20832;SDS011;56075;51.264;7.150;2024-03-22T04:52:58;25.38;;;10.10;;
20832;SDS011;56075;51.264;7.150;2024-03-22T04:55:29;32.22;;;10.98;;
20832;SDS011;56075;51.264;7.150;2024-03-22T04:58:00;25.05;;;10.45;;
20832;SDS011;56075;51.264;7.150;2024-03-22T05:00:31;31.13;;;10.38;;
20832;SDS011;56075;51.264;7.150;2024-03-22T05:03:03;23.80;;;10.20;;
20832;SDS011;56075;51.264;7.150;2024-03-22T05:05:34;23.35;;;10.55;;
20832;SDS011;56075;51.264;7.150;2024-03-22T05:08:07;22.58;;;9.65;;
20832;SDS011;56075;51.264;7.150;2024-03-22T05:10:38;24.60;;;10.10;;
20832;SDS011;56075;51.264;7.150;2024-03-22T05:13:10;26.50;;;10.18;;
20832;SDS011;56075;51.264;7.150;2024-03-22T05:15:41;25.85;;;9.80;;
20832;SDS011;56075;51.264;7.150;2024-03-22T05:18:12;24.95;;;10.18;;
20832;SDS011;56075;51.264;7.150;2024-03-22T05:20:43;22.50;;;9.80;;
20832;SDS011;56075;51.264;7.150;2024-03-22T05:23:15;25.10;;;10.48;;
20832;SDS011;56075;51.264;7.150;2024-03-22T05:25:49;25.40;;;9.90;;
20832;SDS011;56075;51.264;7.150;2024-03-22T05:28:20;25.95;;;10.18;;
20832;SDS011;56075;51.264;7.150;2024-03-22T05:30:51;20.13;;;9.40;;
20832;SDS011;56075;51.264;7.150;2024-03-22T05:33:22;26.60;;;10.20;;
20832;SDS011;56075;51.264;7.150;2024-03-22T05:35:53;23.90;;;10.23;;
20832;SDS011;56075;51.264;7.150;2024-03-22T05:38:24;21.33;;;10.13;;
20832;SDS011;56075;51.264;7.150;2024-03-22T05:40:55;26.38;;;9.82;;
20832;SDS011;56075;51.264;7.150;2024-03-22T05:43:27;24.30;;;9.75;;
20832;SDS011;56075;51.264;7.150;2024-03-22T05:45:58;22.42;;;9.73;;
20832;SDS011;56075;51.264;7.150;2024-03-22T05:48:29;21.23;;;9.55;;
20832;SDS011;56075;51.264;7.150;2024-03-22T05:51:00;26.25;;;10.40;;
20832;SDS011;56075;51.264;7.150;2024-03-22T05:53:31;22.58;;;10.00;;
20832;SDS011;56075;51.264;7.150;2024-03-22T05:56:03;20.83;;;9.63;;
20832;SDS011;56075;51.264;7.150;2024-03-22T05:58:34;23.55;;;10.05;;
20832;SDS011;56075;51.264;7.150;2024-03-22T06:01:07;26.20;;;10.65;;
20832;SDS011;56075;51.264;7.150;2024-03-22T06:03:38;20.88;;;9.93;;
20832;SDS011;56075;51.264;7.150;2024-03-22T06:06:09;21.25;;;9.13;;
20832;SDS011;56075;51.264;7.150;2024-03-22T06:08:40;22.27;;;10.27;;
20832;SDS011;56075;51.264;7.150;2024-03-22T06:11:14;21.27;;;9.35;;
20832;SDS011;56075;51.264;7.150;2024-03-22T06:13:45;22.63;;;9.68;;
20832;SDS011;56075;51.264;7.150;2024-03-22T06:16:16;24.95;;;10.25;;
20832;SDS011;56075;51.264;7.150;2024-03-22T06:18:47;23.00;;;10.35;;
20832;SDS011;56075;51.264;7.150;2024-03-22T06:21:18;20.55;;;9.63;;
20832;SDS011;56075;51.264;7.150;2024-03-22T06:23:55;21.83;;;10.02;;
20832;SDS011;56075;51.264;7.150;2024-03-22T06:26:26;27.17;;;11.07;;
20832;SDS011;56075;51.264;7.150;2024-03-22T06:28:57;26.15;;;10.43;;
20832;SDS011;56075;51.264;7.150;2024-03-22T06:31:28;27.08;;;10.98;;
20832;SDS011;56075;51.264;7.150;2024-03-22T06:34:00;26.73;;;11.38;;
20832;SDS011;56075;51.264;7.150;2024-03-22T06:36:32;25.48;;;11.15;;
20832;SDS011;56075;51.264;7.150;2024-03-22T06:39:03;29.02;;;11.05;;
20832;SDS011;56075;51.264;7.150;2024-03-22T06:41:39;25.52;;;12.07;;
20832;SDS011;56075;51.264;7.150;2024-03-22T06:44:11;27.00;;;12.25;;
20832;SDS011;56075;51.264;7.150;2024-03-22T06:46:44;27.42;;;12.25;;
20832;SDS011;56075;51.264;7.150;2024-03-22T06:49:15;32.90;;;13.50;;
20832;SDS011;56075;51.264;7.150;2024-03-22T06:51:47;31.27;;;13.07;;
20832;SDS011;56075;51.264;7.150;2024-03-22T06:54:19;31.23;;;13.18;;
20832;SDS011;56075;51.264;7.150;2024-03-22T06:56:50;30.60;;;13.45;;
20832;SDS011;56075;51.264;7.150;2024-03-22T06:59:21;29.05;;;13.00;;
20832;SDS011;56075;51.264;7.150;2024-03-22T07:01:53;37.08;;;13.77;;
20832;SDS011;56075;51.264;7.150;2024-03-22T07:04:24;26.85;;;12.90;;
20832;SDS011;56075;51.264;7.150;2024-03-22T07:06:55;30.33;;;13.80;;
20832;SDS011;56075;51.264;7.150;2024-03-22T07:09:26;38.08;;;14.32;;
20832;SDS011;56075;51.264;7.150;2024-03-22T07:12:00;31.80;;;13.93;;
20832;SDS011;56075;51.264;7.150;2024-03-22T07:14:31;35.75;;;14.40;;
20832;SDS011;56075;51.264;7.150;2024-03-22T07:17:02;32.85;;;14.63;;
20832;SDS011;56075;51.264;7.150;2024-03-22T07:19:33;39.15;;;15.88;;
20832;SDS011;56075;51.264;7.150;2024-03-22T07:22:05;33.33;;;14.30;;
20832;SDS011;56075;51.264;7.150;2024-03-22T07:24:36;43.80;;;15.60;;
20832;SDS011;56075;51.264;7.150;2024-03-22T07:27:07;38.20;;;15.60;;
20832;SDS011;56075;51.264;7.150;2024-03-22T07:29:38;36.63;;;15.45;;
20832;SDS011;56075;51.264;7.150;2024-03-22T07:32:10;31.35;;;14.60;;
20832;SDS011;56075;51.264;7.150;2024-03-22T07:34:41;39.08;;;16.30;;
20832;SDS011;56075;51.264;7.150;2024-03-22T07:37:12;34.13;;;15.02;;
20832;SDS011;56075;51.264;7.150;2024-03-22T07:39:43;41.67;;;16.00;;
20832;SDS011;56075;51.264;7.150;2024-03-22T07:42:14;34.35;;;15.32;;
20832;SDS011;56075;51.264;7.150;2024-03-22T07:44:45;38.17;;;15.43;;
20832;SDS011;56075;51.264;7.150;2024-03-22T07:47:17;35.63;;;15.77;;
20832;SDS011;56075;51.264;7.150;2024-03-22T07:49:48;36.38;;;15.55;;
20832;SDS011;56075;51.264;7.150;2024-03-22T07:52:19;35.72;;;15.95;;
20832;SDS011;56075;51.264;7.150;2024-03-22T07:54:50;37.58;;;16.48;;
20832;SDS011;56075;51.264;7.150;2024-03-22T07:57:21;30.67;;;14.55;;
20832;SDS011;56075;51.264;7.150;2024-03-22T07:59:53;36.15;;;15.63;;
20832;SDS011;56075;51.264;7.150;2024-03-22T08:02:25;39.13;;;15.63;;
20832;SDS011;56075;51.264;7.150;2024-03-22T08:04:56;35.75;;;16.17;;
20832;SDS011;56075;51.264;7.150;2024-03-22T08:07:27;36.22;;;16.17;;
20832;SDS011;56075;51.264;7.150;2024-03-22T08:09:59;42.85;;;17.17;;
20832;SDS011;56075;51.264;7.150;2024-03-22T08:12:32;38.38;;;16.75;;
20832;SDS011;56075;51.264;7.150;2024-03-22T08:15:03;37.20;;;16.63;;
20832;SDS011;56075;51.264;7.150;2024-03-22T08:17:36;40.55;;;17.08;;
20832;SDS011;56075;51.264;7.150;2024-03-22T08:20:07;36.53;;;16.52;;
20832;SDS011;56075;51.264;7.150;2024-03-22T08:22:38;41.13;;;15.93;;
20832;SDS011;56075;51.264;7.150;2024-03-22T08:25:10;36.13;;;16.48;;
20832;SDS011;56075;51.264;7.150;2024-03-22T08:27:41;36.83;;;15.18;;
20832;SDS011;56075;51.264;7.150;2024-03-22T08:30:12;39.65;;;17.58;;
20832;SDS011;56075;51.264;7.150;2024-03-22T08:32:43;34.95;;;16.33;;
20832;SDS011;56075;51.264;7.150;2024-03-22T08:35:16;39.55;;;16.42;;
20832;SDS011;56075;51.264;7.150;2024-03-22T08:37:47;34.13;;;15.10;;
20832;SDS011;56075;51.264;7.150;2024-03-22T08:40:19;35.70;;;15.15;;
20832;SDS011;56075;51.264;7.150;2024-03-22T08:42:50;37.05;;;15.85;;
20832;SDS011;56075;51.264;7.150;2024-03-22T08:45:21;32.28;;;14.88;;
20832;SDS011;56075;51.264;7.150;2024-03-22T08:47:52;34.05;;;14.57;;
20832;SDS011;56075;51.264;7.150;2024-03-22T08:50:23;31.35;;;13.80;;
20832;SDS011;56075;51.264;7.150;2024-03-22T08:52:55;30.13;;;13.30;;
20832;SDS011;56075;51.264;7.150;2024-03-22T08:55:26;30.08;;;13.95;;
20832;SDS011;56075;51.264;7.150;2024-03-22T08:57:57;30.70;;;13.82;;
20832;SDS011;56075;51.264;7.150;2024-03-22T09:00:28;31.52;;;13.00;;
20832;SDS011;56075;51.264;7.150;2024-03-22T09:02:59;30.67;;;12.27;;
20832;SDS011;56075;51.264;7.150;2024-03-22T09:05:31;29.85;;;13.20;;
20832;SDS011;56075;51.264;7.150;2024-03-22T09:08:02;28.30;;;12.57;;
20832;SDS011;56075;51.264;7.150;2024-03-22T09:10:34;26.73;;;12.32;;
20832;SDS011;56075;51.264;7.150;2024-03-22T09:13:05;27.85;;;12.20;;
20832;SDS011;56075;51.264;7.150;2024-03-22T09:15:36;25.80;;;11.77;;
20832;SDS011;56075;51.264;7.150;2024-03-22T09:18:07;22.00;;;10.82;;
20832;SDS011;56075;51.264;7.150;2024-03-22T09:20:38;21.95;;;10.05;;
20832;SDS011;56075;51.264;7.150;2024-03-22T09:23:09;21.55;;;9.93;;
20832;SDS011;56075;51.264;7.150;2024-03-22T09:25:41;26.50;;;10.73;;
20832;SDS011;56075;51.264;7.150;2024-03-22T09:28:12;25.30;;;11.05;;
20832;SDS011;56075;51.264;7.150;2024-03-22T09:30:43;22.63;;;10.95;;
20832;SDS011;56075;51.264;7.150;2024-03-22T09:33:15;26.70;;;10.25;;
20832;SDS011;56075;51.264;7.150;2024-03-22T09:35:46;23.80;;;10.63;;
20832;SDS011;56075;51.264;7.150;2024-03-22T09:38:17;23.23;;;10.25;;
20832;SDS011;56075;51.264;7.150;2024-03-22T09:40:48;21.27;;;9.65;;
20832;SDS011;56075;51.264;7.150;2024-03-22T09:43:25;23.38;;;10.30;;
20832;SDS011;56075;51.264;7.150;2024-03-22T09:45:58;22.60;;;9.93;;
20832;SDS011;56075;51.264;7.150;2024-03-22T09:48:29;23.67;;;10.30;;
20832;SDS011;56075;51.264;7.150;2024-03-22T09:51:02;20.63;;;9.98;;
20832;SDS011;56075;51.264;7.150;2024-03-22T09:53:33;21.98;;;10.63;;
20832;SDS011;56075;51.264;7.150;2024-03-22T09:56:06;21.52;;;9.75;;
20832;SDS011;56075;51.264;7.150;2024-03-22T09:58:38;20.25;;;9.52;;
20832;SDS011;56075;51.264;7.150;2024-03-22T10:01:10;22.73;;;9.77;;
20832;SDS011;56075;51.264;7.150;2024-03-22T10:03:43;22.38;;;9.73;;
20832;SDS011;56075;51.264;7.150;2024-03-22T10:06:14;20.70;;;10.23;;
20832;SDS011;56075;51.264;7.150;2024-03-22T10:08:46;23.13;;;10.05;;
20832;SDS011;56075;51.264;7.150;2024-03-22T10:11:17;19.95;;;9.18;;
20832;SDS011;56075;51.264;7.150;2024-03-22T10:13:48;19.10;;;9.15;;
20832;SDS011;56075;51.264;7.150;2024-03-22T10:16:22;21.25;;;9.30;;
20832;SDS011;56075;51.264;7.150;2024-03-22T10:18:53;17.98;;;8.95;;
20832;SDS011;56075;51.264;7.150;2024-03-22T10:21:25;23.92;;;8.95;;
20832;SDS011;56075;51.264;7.150;2024-03-22T10:23:58;21.55;;;9.15;;
20832;SDS011;56075;51.264;7.150;2024-03-22T10:26:32;24.27;;;9.23;;
20832;SDS011;56075;51.264;7.150;2024-03-22T10:29:07;18.83;;;8.88;;
20832;SDS011;56075;51.264;7.150;2024-03-22T10:31:39;20.30;;;9.15;;
20832;SDS011;56075;51.264;7.150;2024-03-22T10:34:10;22.02;;;8.80;;
20832;SDS011;56075;51.264;7.150;2024-03-22T10:36:43;19.35;;;9.07;;
20832;SDS011;56075;51.264;7.150;2024-03-22T10:39:18;24.02;;;9.23;;
20832;SDS011;56075;51.264;7.150;2024-03-22T10:41:49;17.42;;;8.38;;
20832;SDS011;56075;51.264;7.150;2024-03-22T10:44:20;23.25;;;9.15;;
20832;SDS011;56075;51.264;7.150;2024-03-22T10:46:54;19.98;;;8.27;;
20832;SDS011;56075;51.264;7.150;2024-03-22T10:49:28;21.98;;;8.65;;
20832;SDS011;56075;51.264;7.150;2024-03-22T10:52:03;20.95;;;9.57;;
20832;SDS011;56075;51.264;7.150;2024-03-22T10:54:39;19.65;;;9.20;;
20832;SDS011;56075;51.264;7.150;2024-03-22T10:57:15;20.73;;;8.45;;
20832;SDS011;56075;51.264;7.150;2024-03-22T10:59:47;19.58;;;7.93;;
20832;SDS011;56075;51.264;7.150;2024-03-22T11:02:23;19.33;;;8.55;;
20832;SDS011;56075;51.264;7.150;2024-03-22T11:04:57;22.48;;;8.43;;
20832;SDS011;56075;51.264;7.150;2024-03-22T11:07:29;18.17;;;8.30;;
20832;SDS011;56075;51.264;7.150;2024-03-22T11:10:02;20.73;;;9.15;;
20832;SDS011;56075;51.264;7.150;2024-03-22T11:12:37;19.25;;;7.88;;
20832;SDS011;56075;51.264;7.150;2024-03-22T11:15:08;18.40;;;8.32;;
20832;SDS011;56075;51.264;7.150;2024-03-22T11:17:42;19.73;;;9.43;;
20832;SDS011;56075;51.264;7.150;2024-03-22T11:20:14;21.88;;;8.32;;
20832;SDS011;56075;51.264;7.150;2024-03-22T11:22:45;17.40;;;8.73;;
20832;SDS011;56075;51.264;7.150;2024-03-22T11:25:17;21.40;;;8.45;;
20832;SDS011;56075;51.264;7.150;2024-03-22T11:27:49;20.30;;;8.18;;
20832;SDS011;56075;51.264;7.150;2024-03-22T11:30:20;20.65;;;9.02;;
20832;SDS011;56075;51.264;7.150;2024-03-22T11:32:54;22.58;;;8.52;;
20832;SDS011;56075;51.264;7.150;2024-03-22T11:35:25;21.25;;;9.18;;
20832;SDS011;56075;51.264;7.150;2024-03-22T11:37:57;18.17;;;9.07;;
20832;SDS011;56075;51.264;7.150;2024-03-22T11:40:29;20.17;;;9.30;;
20832;SDS011;56075;51.264;7.150;2024-03-22T11:43:01;21.38;;;8.45;;
20832;SDS011;56075;51.264;7.150;2024-03-22T11:45:33;17.27;;;8.57;;
20832;SDS011;56075;51.264;7.150;2024-03-22T11:48:05;19.95;;;9.15;;
20832;SDS011;56075;51.264;7.150;2024-03-22T11:50:37;21.85;;;9.23;;
20832;SDS011;56075;51.264;7.150;2024-03-22T11:53:08;20.52;;;9.75;;
20832;SDS011;56075;51.264;7.150;2024-03-22T11:55:39;21.10;;;9.82;;
20832;SDS011;56075;51.264;7.150;2024-03-22T11:58:11;19.17;;;9.23;;
20832;SDS011;56075;51.264;7.150;2024-03-22T12:00:42;20.25;;;9.23;;
20832;SDS011;56075;51.264;7.150;2024-03-22T12:03:14;19.52;;;8.98;;
20832;SDS011;56075;51.264;7.150;2024-03-22T12:05:45;19.25;;;9.40;;
20832;SDS011;56075;51.264;7.150;2024-03-22T12:08:17;23.20;;;10.32;;
20832;SDS011;56075;51.264;7.150;2024-03-22T12:10:48;24.65;;;10.93;;
20832;SDS011;56075;51.264;7.150;2024-03-22T12:13:20;20.13;;;10.75;;
20832;SDS011;56075;51.264;7.150;2024-03-22T12:15:52;26.15;;;11.02;;
20832;SDS011;56075;51.264;7.150;2024-03-22T12:18:23;19.58;;;9.77;;
20832;SDS011;56075;51.264;7.150;2024-03-22T12:20:54;19.30;;;9.90;;
20832;SDS011;56075;51.264;7.150;2024-03-22T12:23:25;16.02;;;8.57;;
20832;SDS011;56075;51.264;7.150;2024-03-22T12:25:56;18.42;;;8.13;;
20832;SDS011;56075;51.264;7.150;2024-03-22T12:28:27;17.98;;;8.60;;
20832;SDS011;56075;51.264;7.150;2024-03-22T12:30:59;19.08;;;8.90;;
20832;SDS011;56075;51.264;7.150;2024-03-22T12:33:30;18.25;;;8.70;;
20832;SDS011;56075;51.264;7.150;2024-03-22T12:36:02;17.02;;;8.63;;
20832;SDS011;56075;51.264;7.150;2024-03-22T12:38:34;18.05;;;9.10;;
20832;SDS011;56075;51.264;7.150;2024-03-22T12:41:05;24.27;;;10.00;;
20832;SDS011;56075;51.264;7.150;2024-03-22T12:43:37;21.17;;;9.70;;
20832;SDS011;56075;51.264;7.150;2024-03-22T12:46:09;21.42;;;9.57;;
20832;SDS011;56075;51.264;7.150;2024-03-22T12:48:40;20.13;;;9.02;;
20832;SDS011;56075;51.264;7.150;2024-03-22T12:51:11;24.05;;;10.23;;
20832;SDS011;56075;51.264;7.150;2024-03-22T12:53:42;20.23;;;10.18;;
20832;SDS011;56075;51.264;7.150;2024-03-22T12:56:13;22.15;;;10.45;;
20832;SDS011;56075;51.264;7.150;2024-03-22T12:58:44;18.95;;;9.63;;
20832;SDS011;56075;51.264;7.150;2024-03-22T13:01:15;20.23;;;9.52;;
20832;SDS011;56075;51.264;7.150;2024-03-22T13:03:47;18.05;;;9.52;;
20832;SDS011;56075;51.264;7.150;2024-03-22T13:06:18;23.95;;;9.57;;
20832;SDS011;56075;51.264;7.150;2024-03-22T13:08:50;19.15;;;9.13;;
20832;SDS011;56075;51.264;7.150;2024-03-22T13:11:21;23.42;;;9.20;;
20832;SDS011;56075;51.264;7.150;2024-03-22T13:13:52;24.88;;;9.35;;
20832;SDS011;56075;51.264;7.150;2024-03-22T13:16:23;22.05;;;10.65;;
20832;SDS011;56075;51.264;7.150;2024-03-22T13:18:54;22.13;;;10.52;;
20832;SDS011;56075;51.264;7.150;2024-03-22T13:21:25;22.15;;;10.80;;
20832;SDS011;56075;51.264;7.150;2024-03-22T13:23:58;19.25;;;9.07;;
20832;SDS011;56075;51.264;7.150;2024-03-22T13:26:29;21.48;;;10.55;;
20832;SDS011;56075;51.264;7.150;2024-03-22T13:29:00;21.48;;;10.10;;
20832;SDS011;56075;51.264;7.150;2024-03-22T13:31:33;22.13;;;10.00;;
20832;SDS011;56075;51.264;7.150;2024-03-22T13:34:04;21.85;;;10.40;;
20832;SDS011;56075;51.264;7.150;2024-03-22T13:36:35;21.48;;;10.27;;
20832;SDS011;56075;51.264;7.150;2024-03-22T13:39:08;22.80;;;10.38;;
20832;SDS011;56075;51.264;7.150;2024-03-22T13:41:41;22.55;;;11.13;;
20832;SDS011;56075;51.264;7.150;2024-03-22T13:44:12;25.67;;;11.18;;
20832;SDS011;56075;51.264;7.150;2024-03-22T13:46:43;24.40;;;10.75;;
20832;SDS011;56075;51.264;7.150;2024-03-22T13:49:15;25.02;;;11.48;;
20832;SDS011;56075;51.264;7.150;2024-03-22T13:51:47;29.40;;;10.48;;
20832;SDS011;56075;51.264;7.150;2024-03-22T13:54:19;24.77;;;11.45;;
20832;SDS011;56075;51.264;7.150;2024-03-22T13:56:50;24.25;;;11.63;;
20832;SDS011;56075;51.264;7.150;2024-03-22T13:59:21;25.67;;;11.65;;
20832;SDS011;56075;51.264;7.150;2024-03-22T14:01:52;26.42;;;11.88;;
20832;SDS011;56075;51.264;7.150;2024-03-22T14:04:23;30.88;;;12.13;;
20832;SDS011;56075;51.264;7.150;2024-03-22T14:06:56;23.50;;;11.95;;
20832;SDS011;56075;51.264;7.150;2024-03-22T14:09:27;26.70;;;12.13;;
20832;SDS011;56075;51.264;7.150;2024-03-22T14:11:59;19.45;;;9.10;;
20832;SDS011;56075;51.264;7.150;2024-03-22T14:14:30;22.10;;;8.77;;
20832;SDS011;56075;51.264;7.150;2024-03-22T14:17:01;16.80;;;7.95;;
20832;SDS011;56075;51.264;7.150;2024-03-22T14:19:33;16.23;;;7.78;;
20832;SDS011;56075;51.264;7.150;2024-03-22T14:22:04;20.67;;;8.75;;
20832;SDS011;56075;51.264;7.150;2024-03-22T14:24:35;21.63;;;8.27;;
20832;SDS011;56075;51.264;7.150;2024-03-22T14:27:06;19.00;;;8.63;;
20832;SDS011;56075;51.264;7.150;2024-03-22T14:29:37;22.63;;;9.05;;
20832;SDS011;56075;51.264;7.150;2024-03-22T14:32:08;19.42;;;8.80;;
20832;SDS011;56075;51.264;7.150;2024-03-22T14:34:39;20.98;;;8.18;;
20832;SDS011;56075;51.264;7.150;2024-03-22T14:37:10;18.80;;;8.40;;
20832;SDS011;56075;51.264;7.150;2024-03-22T14:39:42;19.23;;;8.93;;
20832;SDS011;56075;51.264;7.150;2024-03-22T14:42:14;16.15;;;7.65;;
20832;SDS011;56075;51.264;7.150;2024-03-22T14:44:45;18.60;;;8.50;;
20832;SDS011;56075;51.264;7.150;2024-03-22T14:47:16;18.15;;;8.00;;
20832;SDS011;56075;51.264;7.150;2024-03-22T14:49:50;20.33;;;9.05;;